»·PEaware :: N434EP KOTH-KLMT

N434EP :: KOTH-KLMT

FLIGHT INFORMATION

Flight Status: Arrived
Operator: Privately registered:
United States
More flights under this callsign
Pilot: Drew H. (3199)
Aircraft: Unknown
(PIPA)
More flights by this aircraft type
Origin: KOTH North Bend Mun
United States
Destination: KLMT Klamath Falls Intl
United States
More flights between these airports :: More routes between these airports
Route: OTH V287 OED V122 LMT
File this flight plan on PilotEdge
Remarks:
Altitude:
(Current/Filed)
9,000ft
Speed:
(Current/Filed)
190kts
Departed: 04-Nov-18 06:33 PM
Arrived: 04-Nov-18 07:28 PM
Distance/Time
Traveled:
134nm/0:55
Distance/Time
To Go:
Arrived

Flight Plot

Page will automatically refresh every two minutes.

Flight plan parsing failed; only flown route is shown


Map Options




Map Legend


Flown Route
Filed Route
Departure Airport
Arrival Airport
Navaid (VOR, NDB)
Fix

Horizontal Profiles

Position Reports

Time Latitude Longitude Heading Altitude Ground
Speed
04-Nov-18 18:18 43.414806 -124.244810 330 20ft 0kts
04-Nov-18 18:19 43.414806 -124.244810 330 20ft 0kts
04-Nov-18 18:20 43.414806 -124.244810 330 20ft 0kts
04-Nov-18 18:21 43.414806 -124.244810 330 20ft 0kts
04-Nov-18 18:22 43.414806 -124.244810 330 20ft 0kts
04-Nov-18 18:23 43.414806 -124.244810 330 20ft 0kts
04-Nov-18 18:24 43.414806 -124.244810 330 20ft 0kts
04-Nov-18 18:25 43.414806 -124.244810 330 20ft 0kts
04-Nov-18 18:26 43.414806 -124.244810 330 20ft 0kts
04-Nov-18 18:26 43.414806 -124.244810 330 20ft 0kts
04-Nov-18 18:28 43.414855 -124.244847 333 20ft 0kts
04-Nov-18 18:29 43.414855 -124.244847 333 20ft 0kts
04-Nov-18 18:30 43.414958 -124.244818 55 20ft 0kts
04-Nov-18 18:30 43.415081 -124.243853 147 20ft 14kts
04-Nov-18 18:31 43.410490 -124.240173 148 20ft 20kts
04-Nov-18 18:32 43.408930 -124.238685 61 20ft 0kts
04-Nov-18 18:33 43.408930 -124.238685 61 20ft 0kts
04-Nov-18 18:34 43.409297 -124.237980 18 20ft 12kts
04-Nov-18 18:35 43.424246 -124.255151 260 963ft 96kts
04-Nov-18 18:36 43.408893 -124.293616 274 1942ft 121kts
04-Nov-18 18:37 43.431041 -124.293080 80 3296ft 127kts
04-Nov-18 18:38 43.424504 -124.243544 94 4601ft 135kts
04-Nov-18 18:39 43.418455 -124.191841 94 5869ft 140kts
04-Nov-18 18:40 43.396715 -124.144695 133 6878ft 161kts
04-Nov-18 18:41 43.365023 -124.100370 134 7795ft 165kts
04-Nov-18 18:43 43.332256 -124.055026 135 8657ft 169kts
04-Nov-18 18:44 43.297158 -124.006836 135 9004ft 193kts
04-Nov-18 18:45 43.257902 -123.953207 135 9002ft 205kts
04-Nov-18 18:46 43.217067 -123.897595 135 9001ft 208kts
04-Nov-18 18:47 43.175771 -123.841477 135 8996ft 209kts
04-Nov-18 18:48 43.136170 -123.787763 136 8980ft 210kts
04-Nov-18 18:49 43.094790 -123.731791 136 8966ft 209kts
04-Nov-18 18:50 43.053312 -123.675822 137 8958ft 209kts
04-Nov-18 18:51 43.011948 -123.620145 136 8957ft 209kts
04-Nov-18 18:52 42.970512 -123.564483 136 8957ft 209kts
04-Nov-18 18:53 42.928957 -123.508755 136 8958ft 210kts
04-Nov-18 18:54 42.887228 -123.452905 136 8954ft 211kts
04-Nov-18 18:55 42.845323 -123.396909 136 8955ft 211kts
04-Nov-18 18:56 42.803870 -123.341627 136 8952ft 211kts
04-Nov-18 18:57 42.761715 -123.285568 136 8953ft 210kts
04-Nov-18 18:58 42.719914 -123.230111 135 8956ft 210kts
04-Nov-18 18:59 42.678198 -123.174840 134 8960ft 209kts
04-Nov-18 19:00 42.636966 -123.120273 134 9008ft 208kts
04-Nov-18 19:01 42.595257 -123.065132 134 9008ft 209kts
04-Nov-18 19:02 42.553473 -123.010036 134 9008ft 210kts
04-Nov-18 19:03 42.511360 -122.954635 135 9009ft 211kts
04-Nov-18 19:04 42.473808 -122.894452 114 9010ft 210kts
04-Nov-18 19:05 42.446590 -122.824096 114 9010ft 211kts
04-Nov-18 19:06 42.419560 -122.753537 114 9010ft 211kts
04-Nov-18 19:07 42.392578 -122.682860 114 9010ft 211kts
04-Nov-18 19:08 42.365544 -122.612028 114 9010ft 211kts
04-Nov-18 19:09 42.338482 -122.541248 113 9009ft 212kts
04-Nov-18 19:10 42.311404 -122.470559 113 9005ft 212kts
04-Nov-18 19:11 42.284153 -122.399598 112 9000ft 213kts
04-Nov-18 19:12 42.256981 -122.328761 113 8990ft 213kts
04-Nov-18 19:13 42.236078 -122.254791 97 8986ft 210kts
04-Nov-18 19:14 42.223799 -122.177409 98 8983ft 212kts
04-Nov-18 19:15 42.211583 -122.099452 99 8983ft 212kts
04-Nov-18 19:16 42.199346 -122.021548 99 8983ft 212kts
04-Nov-18 19:17 42.186218 -121.943912 99 8983ft 212kts
04-Nov-18 19:18 42.162825 -121.873768 129 8439ft 216kts
04-Nov-18 19:19 42.115205 -121.834605 159 7929ft 199kts
04-Nov-18 19:20 42.071103 -121.793667 93 7073ft 201kts
04-Nov-18 19:21 42.081525 -121.735714 65 6102ft 136kts
04-Nov-18 19:22 42.099247 -121.701829 341 4956ft 92kts
04-Nov-18 19:23 42.120628 -121.714050 327 4542ft 87kts
04-Nov-18 19:24 42.143978 -121.726700 328 4419ft 90kts
04-Nov-18 19:25 42.167334 -121.739688 329 4490ft 94kts
04-Nov-18 19:26 42.189472 -121.738746 59 5306ft 113kts
04-Nov-18 19:27 42.203543 -121.692594 74 6046ft 153kts
04-Nov-18 19:28 42.171922 -121.671643 182 5182ft 130kts
04-Nov-18 19:29 42.155887 -121.692611 271 4699ft 87kts
04-Nov-18 19:30 42.156154 -121.724489 271 4131ft 70kts
04-Nov-18 19:31 42.156217 -121.736202 287 4098ft 18kts
04-Nov-18 19:32 42.159737 -121.738296 337 4098ft 15kts
04-Nov-18 19:33 42.163381 -121.741191 279 4098ft 11kts
04-Nov-18 19:34 42.164382 -121.743177 87 4098ft 0kts
04-Nov-18 19:35 42.164382 -121.743177 87 4098ft 0kts
04-Nov-18 19:36 42.164382 -121.743177 87 4098ft 0kts
04-Nov-18 19:37 42.164382 -121.743177 87 4098ft 0kts
04-Nov-18 19:38 42.164382 -121.743177 87 4098ft 0kts
04-Nov-18 19:39 42.164382 -121.743177 87 4098ft 0kts
04-Nov-18 19:40 42.164382 -121.743177 87 4098ft 0kts
04-Nov-18 19:41 42.164382 -121.743177 87 4098ft 0kts
04-Nov-18 19:42 42.164382 -121.743177 87 4098ft 0kts
04-Nov-18 19:43 42.164382 -121.743177 87 4098ft 0kts
04-Nov-18 19:44 42.164382 -121.743177 87 4098ft 0kts
04-Nov-18 19:45 42.161603 -121.739294 158 4098ft 24kts

Navigation Log

Ident Type
Flight plan parsing failed, navigation log unavailable